Home > Products > Valid Products > MTR

000
SAUS43 KDDC 191857
MTRP28
METAR KP28 191856Z AUTO 35029G38KT 13/08 A2979 RMK AO1 PK WND
34039/1825 SLP086 T01330083





000
SAUS43 KDDC 191757
MTRP28
METAR KP28 191756Z AUTO 35015G22KT 18/10 A2979 RMK AO1 PK WND
32026/1724 SLP081 T01780100 10178 20083 50009





000
SAUS43 KDDC 191757
MTRP28
METAR KP28 191756Z AUTO 35015G22KT 18/10 A2979 RMK AO1 PK WND
32026/1724 SLP081 T01780100 10178 20083 50009





000
SAUS43 KDDC 191657
MTRP28
METAR KP28 191656Z AUTO 01013G24KT 18/11 A2979 RMK AO1 SLP082
T01780111





000
SAUS43 KDDC 191557
MTRP28
METAR KP28 191556Z AUTO 33010KT 16/11 A2978 RMK AO1 SLP079 T01610106





000
SAUS43 KDDC 191457
MTRP28
METAR KP28 191456Z AUTO 28007KT 14/10 A2976 RMK AO1 SLP072 T01440100
58002





000
SAUS43 KDDC 191357
MTRP28
METAR KP28 191356Z AUTO 32005KT 12/11 A2977 RMK AO1 SLP079 T01170106





000
SAUS43 KDDC 191357
MTRP28
METAR KP28 191356Z AUTO 32005KT 12/11 A2977 RMK AO1 SLP079 T01170106





000
SAUS43 KDDC 191258
MTRP28
METAR KP28 191256Z AUTO 00000KT 10/09 A2977 RMK AO1 SLP077 T01000094





000
SAUS43 KDDC 191258
MTRP28
METAR KP28 191256Z AUTO 00000KT 10/09 A2977 RMK AO1 SLP077 T01000094





000
SAUS43 KDDC 191157
MTRP28
METAR KP28 191156Z AUTO 00000KT 08/08 A2977 RMK AO1 SLP078 70026
T00830083 10128 20078 53004





000
SAUS43 KDDC 191157
MTRP28
METAR KP28 191156Z AUTO 00000KT 08/08 A2977 RMK AO1 SLP078 70026
T00830083 10128 20078 53004





000
SAUS43 KDDC 191057
MTRP28
METAR KP28 191056Z AUTO 00000KT 09/09 A2975 RMK AO1 SLP071 T00940089





000
SAUS43 KDDC 191057
MTRP28
METAR KP28 191056Z AUTO 00000KT 09/09 A2975 RMK AO1 SLP071 T00940089





000
SAUS43 KDDC 190957
MTRP28
METAR KP28 190956Z AUTO 00000KT 08/08 A2973 RMK AO1 SLP067 T00830083





000
SAUS43 KDDC 190957
MTRP28
METAR KP28 190956Z AUTO 00000KT 08/08 A2973 RMK AO1 SLP067 T00830083





000
SAUS43 KDDC 190857
MTRP28
METAR KP28 190856Z AUTO 00000KT 09/09 A2975 RMK AO1 SLP070 T00940089
56007





000
SAUS43 KDDC 190758
MTRP28
METAR KP28 190756Z AUTO 16004KT 11/10 A2976 RMK AO1 SLP069 T01060100





000
SAUS43 KDDC 190658
MTRP28
METAR KP28 190656Z AUTO 12003KT 12/11 A2976 RMK AO1 SLP070 T01170106





000
SAUS43 KDDC 190658
MTRP28
METAR KP28 190656Z AUTO 12003KT 12/11 A2976 RMK AO1 SLP070 T01170106





000
SAUS43 KDDC 190558
MTRP28
METAR KP28 190556Z AUTO 11005KT 13/11 A2977 RMK AO1 SLP074 60005
T01280106 10167 20128 402280128 53003





000
SAUS43 KDDC 190558
MTRP28
METAR KP28 190556Z AUTO 11005KT 13/11 A2977 RMK AO1 SLP074 60005
T01280106 10167 20128 402280128 53003





000
SAUS43 KDDC 190458
MTRP28
METAR KP28 190456Z AUTO 09007KT 13/10 A2978 RMK AO1 PRESRR SLP075
T01330100





000
SAUS43 KDDC 190458
MTRP28
METAR KP28 190456Z AUTO 09007KT 13/10 A2978 RMK AO1 PRESRR SLP075
T01330100





000
SAUS43 KDDC 190357
MTRP28
METAR KP28 190356Z AUTO 12006KT 14/11 A2976 RMK AO1 SLP071 T01440106





000
SAUS43 KDDC 190257
MTRP28
METAR KP28 190256Z AUTO 01005KT 14/09 A2977 RMK AO1 SLP073 60005
T01390094 53006





000
SAUS43 KDDC 190157
MTRP28
METAR KP28 190156Z AUTO 09007KT 14/11 A2971 RMK AO1 SLP056 T01440111





000
SAUS43 KDDC 190057
MTRP28
METAR KP28 190056Z AUTO VRB06KT 16/10 A2973 RMK AO1 SLP059 P0005
T01610100





000
SAUS43 KDDC 182357
MTRP28
METAR KP28 182356Z AUTO 01005KT 13/12 A2975 RMK AO1 SLP069 P0010
60021 T01330122 10228 20128 51001





000
SAUS43 KDDC 182357
MTRP28
METAR KP28 182356Z AUTO 01005KT 13/12 A2975 RMK AO1 SLP069 P0010
60021 T01330122 10228 20128 51001





000
SAUS43 KDDC 182257
MTRP28
METAR KP28 182256Z AUTO 09009KT 13/11 A2975 RMK AO1 SLP070 P0003
T01330111





000
SAUS43 KDDC 182157
MTRP28
METAR KP28 182156Z AUTO 24005KT 15/10 A2980 RMK AO1 PK WND
18035/2130 SLP087 P0008 T01500100





000
SAUS43 KDDC 182057
MTRP28
METAR KP28 182056Z AUTO 16008G19KT 21/13 A2975 RMK AO1 SLP064
T02060133 58035





000
SAUS43 KDDC 181957
MTRP28
METAR KP28 181956Z AUTO 16010G17KT 22/14 A2979 RMK AO1 SLP079
T02170144





000
SAUS43 KDDC 181957
MTRP28
METAR KP28 181956Z AUTO 16010G17KT 22/14 A2979 RMK AO1 SLP079
T02170144





000
SAUS43 KDDC 181857
MTRP28
METAR KP28 181856Z AUTO 18013G20KT 22/14 A2983 RMK AO1 SLP092
T02220144





000
SAUS43 KDDC 181757
MTRP28
METAR KP28 181756Z AUTO 16010G18KT 22/14 A2985 RMK AO1 SLP099
T02170144 10217 20139 58014





000
SAUS43 KDDC 181757
MTRP28
METAR KP28 181756Z AUTO 16010G18KT 22/14 A2985 RMK AO1 SLP099
T02170144 10217 20139 58014





000
SAUS43 KDDC 181658
MTRP28
METAR KP28 181656Z AUTO 16011G16KT 21/15 A2989 RMK AO1 SLP111
T02060150





000
SAUS43 KDDC 181658
MTRP28
METAR KP28 181656Z AUTO 16011G16KT 21/15 A2989 RMK AO1 SLP111
T02060150





000
SAUS43 KDDC 181557
MTRP28
METAR KP28 181556Z AUTO VRB05KT 20/14 A2990 RMK AO1 SLP116 T02000139





000
SAUS43 KDDC 181458
MTRP28
METAR KP28 181456Z AUTO 18010KT 18/14 A2990 RMK AO1 SLP116 T01830139
56004





000
SAUS43 KDDC 181357
MTRP28
METAR KP28 181356Z AUTO VRB04KT 16/14 A2991 RMK AO1 SLP121 T01560144





000
SAUS43 KDDC 181257
MTRP28
METAR KP28 181256Z AUTO 16003KT 14/14 A2990 RMK AO1 SLP119 T01440139





000
SAUS43 KDDC 181257
MTRP28
METAR KP28 181256Z AUTO 16003KT 14/14 A2990 RMK AO1 SLP119 T01440139





000
SAUS43 KDDC 181157
MTRP28
METAR KP28 181156Z AUTO 00000KT 14/13 A2991 RMK AO1 SLP121 70003
T01390133 10167 20128 55004





000
SAUS43 KDDC 181157
MTRP28
METAR KP28 181156Z AUTO 00000KT 14/13 A2991 RMK AO1 SLP121 70003
T01390133 10167 20128 55004





000
SAUS43 KDDC 181057
MTRP28
METAR KP28 181056Z AUTO 00000KT 13/12 A2989 RMK AO1 SLP114 T01280122





000
SAUS43 KDDC 181057
MTRP28
METAR KP28 181056Z AUTO 00000KT 13/12 A2989 RMK AO1 SLP114 T01280122





000
SAUS43 KDDC 180957
MTRP28
METAR KP28 180956Z AUTO 00000KT 14/14 A2990 RMK AO1 SLP117 T01440139





000
SAUS43 KDDC 180858
MTRP28
METAR KP28 180856Z AUTO 19003KT 15/14 A2992 RMK AO1 SLP123 T01500139
56009





000
SAUS43 KDDC 180757
MTRP28
METAR KP28 180756Z AUTO 18005KT 15/14 A2993 RMK AO1 SLP124 T01500139





000
SAUS43 KDDC 180757
MTRP28
METAR KP28 180756Z AUTO 18005KT 15/14 A2993 RMK AO1 SLP124 T01500139





000
SAUS43 KDDC 180657
MTRP28
METAR KP28 180656Z AUTO 13006KT 17/13 A2994 RMK AO1 SLP128 T01670133





000
SAUS43 KDDC 180557
MTRP28
METAR KP28 180556Z AUTO 12004KT 17/14 A2995 RMK AO1 SLP132 T01670139
10206 20161 402390133 53002





000
SAUS43 KDDC 180557
MTRP28
METAR KP28 180556Z AUTO 12004KT 17/14 A2995 RMK AO1 SLP132 T01670139
10206 20161 402390133 53002





000
SAUS43 KDDC 180457
MTRP28
METAR KP28 180456Z AUTO 11004KT 17/14 A2993 RMK AO1 SLP128 T01670139





000
SAUS43 KDDC 180357
MTRP28
METAR KP28 180356Z AUTO 11005KT 17/14 A2994 RMK AO1 SLP129 T01720139





000
SAUS43 KDDC 180357
MTRP28
METAR KP28 180356Z AUTO 11005KT 17/14 A2994 RMK AO1 SLP129 T01720139





000
SAUS43 KDDC 180257
MTRP28
METAR KP28 180256Z AUTO 14004KT 18/14 A2995 RMK AO1 SLP134 T01780144
51013





000
SAUS43 KDDC 180157
MTRP28
METAR KP28 180156Z AUTO 15004KT 18/14 A2994 RMK AO1 SLP132 T01780144





000
SAUS43 KDDC 180057
MTRP28
METAR KP28 180056Z AUTO 16006KT 19/14 A2991 RMK AO1 SLP123 T01890144





000
SAUS43 KDDC 172357
MTRP28
METAR KP28 172356Z AUTO 15008KT 21/14 A2991 RMK AO1 SLP119 T02060144
10239 20206 58002





000
SAUS43 KDDC 172357
MTRP28
METAR KP28 172356Z AUTO 15008KT 21/14 A2991 RMK AO1 SLP119 T02060144
10239 20206 58002





000
SAUS43 KDDC 172257
MTRP28
METAR KP28 172256Z AUTO 15010G17KT 22/14 A2993 RMK AO1 SLP125
T02220139





000
SAUS43 KDDC 172157
MTRP28
METAR KP28 172156Z AUTO 16011G17KT 22/14 A2991 RMK AO1 SLP121
T02170144





000
SAUS43 KDDC 172057
MTRP28
METAR KP28 172056Z AUTO 17010G16KT 23/13 A2991 RMK AO1 SLP120
T02280128 56029





000
SAUS43 KDDC 172057
MTRP28
METAR KP28 172056Z AUTO 17010G16KT 23/13 A2991 RMK AO1 SLP120
T02280128 56029





000
SAUS43 KDDC 171957
MTRP28
METAR KP28 171956Z AUTO 18012G18KT 140V210 23/12 A2995 RMK AO1
SLP131 T02330117





000
SAUS43 KDDC 171957
MTRP28
METAR KP28 171956Z AUTO 18012G18KT 140V210 23/12 A2995 RMK AO1
SLP131 T02330117





000
SAUS43 KDDC 171857
MTRP28
METAR KP28 171856Z AUTO 13009G16KT 23/11 A2996 RMK AO1 SLP138
T02280106





000
SAUS43 KDDC 171857
MTRP28
METAR KP28 171856Z AUTO 13009G16KT 23/11 A2996 RMK AO1 SLP138
T02280106





000
SAUS43 KDDC 171757
MTRP28
METAR KP28 171756Z AUTO 11006KT 22/12 A3000 RMK AO1 SLP151 60003
T02170117 10217 20133 50002





000
SAUS43 KDDC 171658
MTRP28
METAR KP28 171656Z AUTO 13006KT 19/13 A3002 RMK AO1 SLP158 T01940128





000
SAUS43 KDDC 171658
MTRP28
METAR KP28 171656Z AUTO 13006KT 19/13 A3002 RMK AO1 SLP158 T01940128





000
SAUS43 KDDC 171557
MTRP28
METAR KP28 171556Z AUTO 18006KT 17/13 A3001 RMK AO1 SLP156 T01720133





000
SAUS43 KDDC 171457
MTRP28
METAR KP28 171456Z AUTO VRB03KT 15/13 A3000 RMK AO1 SLP153 60003
T01500128 55003





000
SAUS43 KDDC 171457
MTRP28
METAR KP28 171456Z AUTO VRB03KT 15/13 A3000 RMK AO1 SLP153 60003
T01500128 55003





000
SAUS43 KDDC 171357
MTRP28
METAR KP28 171356Z AUTO 16008KT 14/13 A2999 RMK AO1 SLP149 P0001
T01390128





000
SAUS43 KDDC 171357
MTRP28
METAR KP28 171356Z AUTO 16008KT 14/13 A2999 RMK AO1 SLP149 P0001
T01390128





000
SAUS43 KDDC 171257
MTRP28
METAR KP28 171256Z AUTO 10009KT 13/13 A2997 RMK AO1 PRESFR SLP145
P0002 T01330128





000
SAUS43 KDDC 171257
MTRP28
METAR KP28 171256Z AUTO 10009KT 13/13 A2997 RMK AO1 PRESFR SLP145
P0002 T01330128





000
SAUS43 KDDC 171157
MTRP28
METAR KP28 171156Z AUTO 11006KT 13/13 A3001 RMK AO1 SLP156 P0010
60042 70170 T01330128 10144 20133 58003





000
SAUS43 KDDC 171157
MTRP28
METAR KP28 171156Z AUTO 11006KT 13/13 A3001 RMK AO1 SLP156 P0010
60042 70170 T01330128 10144 20133 58003





000
SAUS43 KDDC 171057
MTRP28
METAR KP28 171056Z AUTO 00000KT 14/13 A3005 RMK AO1 SLP173 P0007
T01390133





000
SAUS43 KDDC 170957
MTRP28
METAR KP28 170956Z AUTO 26007KT 13/13 A3005 RMK AO1 SLP168 P0010
T01330128





000
SAUS43 KDDC 170857
MTRP28
METAR KP28 170856Z AUTO 08004KT 14/12 A3002 RMK AO1 PRESRR SLP155
P0002 60015 T01440117 51010





000
SAUS43 KDDC 170857
MTRP28
METAR KP28 170856Z AUTO 08004KT 14/12 A3002 RMK AO1 PRESRR SLP155
P0002 60015 T01440117 51010





000
SAUS43 KDDC 170757
MTRP28
METAR KP28 170756Z AUTO 08013G18KT 14/13 A2998 RMK AO1 SLP142 P0010
T01440133





000
SAUS43 KDDC 170657
MTRP28
METAR KP28 170656Z AUTO 06007KT 14/13 A3003 RMK AO1 SLP161 P0003
T01390133





000
SAUS43 KDDC 170557
MTRP28
METAR KP28 170556Z AUTO 04010KT 14/13 A2999 RMK AO1 SLP146 P0007
60124 T01390133 10167 20133 402500111 58009





000
SAUS43 KDDC 170557
MTRP28
METAR KP28 170556Z AUTO 04010KT 14/13 A2999 RMK AO1 SLP146 P0007
60124 T01390133 10167 20133 402500111 58009





000
SAUS43 KDDC 170457
MTRP28
METAR KP28 170456Z AUTO 33005KT 14/14 A3003 RMK AO1 SLP162 P0059
T01390139





000
SAUS43 KDDC 170357
MTRP28
METAR KP28 170356Z AUTO 31015G25KT 13/13 A3004 RMK AO1 SLP165 P0045
T01330133





000
SAUS43 KDDC 170258
MTRP28
METAR KP28 170256Z AUTO 30013KT 15/14 A3001 RMK AO1 SLP157 P0003
60013 T01500139 53025





000
SAUS43 KDDC 170157
MTRP28
METAR KP28 170156Z AUTO 35004KT 16/14 A2997 RMK AO1 SLP144 P0002
T01560139





000
SAUS43 KDDC 170057
MTRP28
METAR KP28 170056Z AUTO 08004KT 16/14 A2993 RMK AO1 PRESRR SLP133
P0008 T01560139





000
SAUS43 KDDC 170057
MTRP28
METAR KP28 170056Z AUTO 08004KT 16/14 A2993 RMK AO1 PRESRR SLP133
P0008 T01560139





000
SAUS43 KDDC 162357
MTRP28
METAR KP28 162356Z AUTO 35007KT 15/13 A2994 RMK AO1 SLP134 P0004
60004 T01500128 10250 20144 50006





000
SAUS43 KDDC 162357
MTRP28
METAR KP28 162356Z AUTO 35007KT 15/13 A2994 RMK AO1 SLP134 P0004
60004 T01500128 10250 20144 50006





000
SAUS43 KDDC 162258
MTRP28
METAR KP28 162256Z AUTO 05007KT 16/12 A2996 RMK AO1 PK WND
03026/2227 SLP141 T01560117





000
SAUS43 KDDC 162258
MTRP28
METAR KP28 162256Z AUTO 05007KT 16/12 A2996 RMK AO1 PK WND
03026/2227 SLP141 T01560117





000
SAUS43 KDDC 162157
MTRP28
METAR KP28 162156Z AUTO 15006KT 24/15 A2991 RMK AO1 SLP118 T02440150





000
SAUS43 KDDC 162057
MTRP28
METAR KP28 162056Z AUTO 16009G18KT 23/16 A2992 RMK AO1 SLP123
T02330156 58007





000
SAUS43 KDDC 161957
MTRP28
METAR KP28 161956Z AUTO 17010G16KT 140V210 23/15 A2994 RMK AO1
SLP129 T02280150





000
SAUS43 KDDC 161957
MTRP28
METAR KP28 161956Z AUTO 17010G16KT 140V210 23/15 A2994 RMK AO1
SLP129 T02280150





    US Dept of Commerce
    National Oceanic and Atmospheric Administration
    National Weather Service
    1325 East West Highway
    Silver Spring, MD 20910
    Page Author: NWS Internet Services Team
Disclaimer
Information Quality
Credits
Glossary
Privacy Policy
Freedom of Information Act (FOIA)
About Us
Career Opportunities